DW2802 Ogijares ES current weather conditions

sailwx.info

Wind from 043

Air temperature 22.8° C
Dewpoint 17.9° C

Last reported at 2015-Aug-31 03:42 UTC.
Time now 2015-Aug-31 04:51 UTC

Location: N 37°07' W 003°36'.
View on Google Maps.

See reports from other nearby stations

  
Tides and Currents Weather Stations Pressure Air Temp Water Temp Dewpoint Dewpoint Depression Visibility Wind Speed Wind Dir Waves Ship Positions
date/time (UTC)wind fromknots sea level pressurealtimeterstation pressurevisibilityair tempwater tempwave heightnotes
2015-Aug-31 03:42 043 22.8
2015-Aug-31 03:27 021 22.8
2015-Aug-31 03:12 331 22.8
2015-Aug-31 02:57 323 5 gusting 7 22.8
2015-Aug-31 02:42 321 22.8
2015-Aug-31 02:27 321 3 gusting 6 22.8
2015-Aug-31 02:12 355 23.3
2015-Aug-31 01:57 005 23.3
2015-Aug-31 01:42 005 23.3
2015-Aug-31 01:27 005 0 gusting 6 23.3
2015-Aug-31 01:12 034 23.3
2015-Aug-31 00:57 034 23.3
2015-Aug-31 00:42 034 23.9
2015-Aug-31 00:27 034 23.9
2015-Aug-31 00:12 034 23.9
2015-Aug-30 23:57 034 24.4
2015-Aug-30 23:42 035 0 gusting 5 24.4
2015-Aug-30 23:27 035 5 gusting 8 25.0
2015-Aug-30 23:12 073 4 gusting 7 25.6
2015-Aug-30 22:57 098 25.6
2015-Aug-30 22:42 135 6 gusting 18 25.0
2015-Aug-30 22:27 123 8 gusting 19 25.0
2015-Aug-30 22:12 155 15 gusting 24 25.0
2015-Aug-30 21:57 161 8 gusting 18 25.6
2015-Aug-30 21:42 154 11 gusting 18 25.6
2015-Aug-30 21:27 135 10 gusting 21 26.1
2015-Aug-30 21:12 144 12 gusting 18 27.8
2015-Aug-30 20:57 146 4 gusting 9 27.8
2015-Aug-30 20:42 207 27.8
2015-Aug-30 20:27 192 2 gusting 6 27.8
2015-Aug-30 20:12 162 1 gusting 5 27.8
2015-Aug-30 19:57 039 28.3
2015-Aug-30 19:42 039 28.3
2015-Aug-30 19:27 038 1 gusting 5 28.9
2015-Aug-30 19:12 085 1 gusting 5 28.9
2015-Aug-30 18:57 075 3 gusting 7 28.3
2015-Aug-30 18:42 096 2 gusting 8 28.3
2015-Aug-30 18:27 219 27.8
2015-Aug-30 18:12 219 28.3
2015-Aug-30 17:57 227 2 gusting 11 28.3
2015-Aug-30 17:42 234 6 gusting 17 28.9
2015-Aug-30 17:27 222 1 gusting 8 30.0
2015-Aug-30 17:12 325 4 gusting 7 31.1
2015-Aug-30 16:57 313 2 gusting 4 31.7
2015-Aug-30 16:42 097 31.7
2015-Aug-30 16:27 092 31.7
2015-Aug-30 16:12 097 3 gusting 6 32.2
2015-Aug-30 15:57 333 2 gusting 4 31.7
2015-Aug-30 15:42 333 31.1
2015-Aug-30 15:27 153 30.6
2015-Aug-30 15:12 236 4 gusting 9 30.0
2015-Aug-30 14:57 197 3 gusting 14 30.0
2015-Aug-30 14:42 190 6 gusting 12 30.6
2015-Aug-30 14:27 174 9 gusting 17 30.6
2015-Aug-30 14:12 225 9 gusting 14 31.7
2015-Aug-30 13:57 209 1 gusting 8 31.7
2015-Aug-30 13:42 175 9 gusting 18 31.7
2015-Aug-30 13:27 163 7 gusting 17 31.7
2015-Aug-30 13:12 147 9 gusting 16 32.2
2015-Aug-30 12:57 156 5 gusting 15 32.2
2015-Aug-30 12:42 144 10 gusting 16 32.2
2015-Aug-30 12:27 057 1 gusting 9 31.7
2015-Aug-30 12:12 322 32.2
2015-Aug-30 11:57 015 3 gusting 11 31.7
2015-Aug-30 11:42 325 0 gusting 8 31.1
2015-Aug-30 11:27 294 4 gusting 10 30.6
2015-Aug-30 11:11 360 3 gusting 7 30.6
2015-Aug-30 10:56 333 1 gusting 7 29.4
2015-Aug-30 10:41 322 0 gusting 6 28.9
2015-Aug-30 10:26 335 4 gusting 6 29.4
2015-Aug-30 10:11 014 1 gusting 6 28.9
2015-Aug-30 09:56 010 3 gusting 6 28.3
2015-Aug-30 09:41 049 3 gusting 7 27.2
2015-Aug-30 09:26 307 0 gusting 5 26.7
2015-Aug-30 09:11 085 26.7
2015-Aug-30 08:56 085 26.1
2015-Aug-30 08:41 086 25.6
2015-Aug-30 08:26 087 25.0
2015-Aug-30 08:11 098 23.9
2015-Aug-30 07:56 125 23.3
2015-Aug-30 07:41 126 22.8
2015-Aug-30 07:25 126 22.2
2015-Aug-30 07:10 126 21.7
2015-Aug-30 06:55 123 21.1
2015-Aug-30 06:40 123 20.6
2015-Aug-30 06:25 151 20.6
2015-Aug-30 06:10 151 20.6
2015-Aug-30 05:55 150 20.6
2015-Aug-30 05:40 150 20.0
2015-Aug-30 05:25 150 20.6
2015-Aug-30 05:10 150 20.6
2015-Aug-30 04:55 150 20.6
2015-Aug-30 04:40 150 20.0
2015-Aug-30 04:25 150 20.6
2015-Aug-30 04:10 150 20.6
2015-Aug-30 03:55 150 20.6
2015-Aug-30 03:40 150 21.1
2015-Aug-30 03:25 150 21.1
2015-Aug-30 03:10 150 21.7
2015-Aug-30 02:55 150 21.7
2015-Aug-30 02:40 150 21.7
2015-Aug-30 02:25 188 21.7
2015-Aug-30 02:10 188 21.7
2015-Aug-30 01:55 188 21.7
2015-Aug-30 01:40 188 21.7
2015-Aug-30 01:25 188 21.7
2015-Aug-30 01:10 188 21.7
2015-Aug-30 00:55 134 22.2
2015-Aug-30 00:40 134 22.2
2015-Aug-30 00:25 134 22.8
2015-Aug-30 00:10 134 22.8
2015-Aug-29 23:55 134 23.3
2015-Aug-29 23:40 136 22.8
2015-Aug-29 23:25 137 22.8
2015-Aug-29 23:09 166 22.8
2015-Aug-29 22:54 158 22.8
2015-Aug-29 22:39 124 23.3
2015-Aug-29 22:24 124 23.9
2015-Aug-29 22:09 124 23.9
2015-Aug-29 21:54 124 23.9
2015-Aug-29 21:39 124 24.4
2015-Aug-29 21:24 138 23.9
2015-Aug-29 21:09 119 23.9
2015-Aug-29 20:54 022 23.9
2015-Aug-29 20:39 022 24.4
2015-Aug-29 20:24 162 25.0
2015-Aug-29 20:09 163 25.6
2015-Aug-29 19:54 162 26.1
2015-Aug-29 19:39 163 26.1
2015-Aug-29 19:24 184 26.7
2015-Aug-29 19:09 184 26.7
2015-Aug-29 18:54 158 2 gusting 6 26.7
2015-Aug-29 18:39 212 2 gusting 6 27.2
2015-Aug-29 18:24 141 2 gusting 9 27.2
2015-Aug-29 18:09 155 3 gusting 9 27.8
2015-Aug-29 17:54 155 3 gusting 6 28.3
2015-Aug-29 17:39 158 5 gusting 9 28.9
2015-Aug-29 17:24 158 5 gusting 8 29.4
2015-Aug-29 17:09 170 3 gusting 6 30.0
2015-Aug-29 16:54 147 2 gusting 8 29.4
2015-Aug-29 16:39 143 4 gusting 9 29.4
2015-Aug-29 16:24 157 6 gusting 13 28.9
2015-Aug-29 16:09 149 5 gusting 13 28.9
2015-Aug-29 15:54 148 8 gusting 13 28.9
2015-Aug-29 15:39 146 6 gusting 13 30.0
2015-Aug-29 15:24 198 4 gusting 9 30.0
2015-Aug-29 15:09 160 4 gusting 10 30.0
2015-Aug-29 14:54 140 7 gusting 13 29.4
2015-Aug-29 14:39 121 8 gusting 17 29.4
2015-Aug-29 14:24 143 9 gusting 14 29.4
2015-Aug-29 14:10 166 12 gusting 16 28.9
2015-Aug-29 13:54 184 4 gusting 19 30.0
2015-Aug-29 13:39 194 8 gusting 15 31.1
2015-Aug-29 13:24 200 4 gusting 8 31.7
2015-Aug-29 13:09 238 5 gusting 9 31.1
2015-Aug-29 12:54 246 2 gusting 10 31.7
2015-Aug-29 12:39 246 4 gusting 10 31.1
2015-Aug-29 12:24 242 0 gusting 5 31.1
2015-Aug-29 12:09 242 2 gusting 7 31.1
2015-Aug-29 11:54 277 1 gusting 7 30.6
2015-Aug-29 11:39 329 0 gusting 5 30.6
2015-Aug-29 11:24 274 30.0
2015-Aug-29 11:09 056 30.6
2015-Aug-29 10:53 055 0 gusting 4 30.0
2015-Aug-29 10:38 038 2 gusting 7 28.9
2015-Aug-29 10:23 346 0 gusting 6 28.9
2015-Aug-29 10:08 039 0 gusting 6 28.3
2015-Aug-29 09:53 013 28.3
2015-Aug-29 09:38 005 27.2
2015-Aug-29 09:23 360 26.7
2015-Aug-29 09:08 011 26.7
2015-Aug-29 08:53 078 26.1
2015-Aug-29 08:38 084 25.0
2015-Aug-29 08:23 084 23.9
2015-Aug-29 08:08 084 23.3
2015-Aug-29 07:53 084 23.3
2015-Aug-29 07:38 084 22.8
2015-Aug-29 07:23 084 22.8
2015-Aug-29 07:08 132 21.7
2015-Aug-29 06:53 132 21.1
2015-Aug-29 06:38 132 20.6
2015-Aug-29 06:22 139 20.6
2015-Aug-29 06:07 139 20.6
2015-Aug-29 05:52 109 20.6
2015-Aug-29 05:37 109 20.6
2015-Aug-29 05:22 111 20.6
2015-Aug-29 05:07 111 21.1
2015-Aug-29 04:52 111 20.6
2015-Aug-29 04:37 111 21.1
2015-Aug-29 04:22 111 21.1
2015-Aug-29 04:07 111 21.1